Time;durP1;ratioP1;P1;durP2;ratioP2;P2;SDS_P1;SDS_P2;PMS_P1;PMS_P2;Temp;Humidity;BMP_temperature;BMP_pressure;BME280_temperature;BME280_humidity;BME280_pressure;Samples;Min_cycle;Max_cycle;Signal;HPM_P1;HPM_P2
2022/07/02 00:02:00;;;;;;;0.20;0.20;;;;;;;14.68;87.04;100547.22;5125002;28;20020;-68
2022/07/02 00:04:30;;;;;;;0.20;0.20;;;;;;;14.70;87.61;100548.03;5125129;28;20020;-68
2022/07/02 00:06:55;;;;;;;0.20;0.20;;;;;;;14.77;88.21;100547.91;5125269;28;20058;-68
2022/07/02 00:09:21;;;;;;;0.20;0.20;;;;;;;14.79;88.83;100540.88;5106792;28;20027;-69
2022/07/02 00:11:48;;;;;;;0.20;0.20;;;;;;;14.85;88.54;100533.78;5124558;28;20054;-68
2022/07/02 00:14:15;;;;;;;0.20;0.20;;;;;;;14.83;89.26;100530.34;5124954;28;20024;-68
2022/07/02 00:16:44;;;;;;;0.20;0.20;;;;;;;14.87;89.44;100529.38;5106471;28;20016;-68
2022/07/02 00:19:09;;;;;;;0.25;0.25;;;;;;;14.90;89.56;100531.06;5124607;28;20027;-68
2022/07/02 00:21:39;;;;;;;0.20;0.20;;;;;;;14.86;90.22;100525.06;5124825;28;20034;-66
2022/07/02 00:24:06;;;;;;;0.20;0.20;;;;;;;14.90;90.76;100523.22;5124702;28;20043;-68
2022/07/02 00:26:33;;;;;;;0.20;0.20;;;;;;;14.93;91.28;100517.06;5105996;28;20390;-66
2022/07/02 00:29:06;;;;;;;0.20;0.20;;;;;;;14.93;91.72;100510.09;5124705;28;20028;-66
2022/07/02 00:31:37;;;;;;;0.20;0.20;;;;;;;14.95;92.19;100503.03;5124647;28;20043;-67
2022/07/02 00:34:03;;;;;;;0.20;0.20;;;;;;;14.95;92.65;100495.19;5124513;28;20023;-67
2022/07/02 00:36:31;;;;;;;0.20;0.20;;;;;;;14.99;93.25;100498.59;5106309;28;20047;-65
2022/07/02 00:38:57;;;;;;;0.20;0.20;;;;;;;15.05;93.13;100495.00;5124394;28;20045;-67
2022/07/02 00:41:24;;;;;;;0.20;0.20;;;;;;;15.08;93.46;100498.34;5123970;28;20457;-65
2022/07/02 00:43:50;;;;;;;0.20;0.20;;;;;;;15.07;93.78;100498.41;5123376;28;20127;-65
2022/07/02 00:46:17;;;;;;;0.20;0.20;;;;;;;15.09;94.49;100500.09;5124126;28;20436;-65
2022/07/02 00:48:43;;;;;;;0.20;0.20;;;;;;;15.14;94.20;100494.75;5123687;28;20376;-67
2022/07/02 00:51:09;;;;;;;0.20;0.20;;;;;;;15.13;94.24;100498.22;5123198;28;20015;-65
2022/07/02 00:53:34;;;;;;;0.20;0.20;;;;;;;15.13;94.31;100495.63;5123563;28;20027;-65
2022/07/02 00:56:00;;;;;;;1.15;1.05;;;;;;;15.08;94.42;100492.28;5123855;28;20049;-65
2022/07/02 00:58:28;;;;;;;0.20;0.20;;;;;;;15.13;94.24;100500.84;5124266;28;20094;-64
2022/07/02 01:00:53;;;;;;;0.20;0.20;;;;;;;15.08;94.94;100507.97;5124041;28;20100;-65
2022/07/02 01:03:21;;;;;;;0.20;0.20;;;;;;;15.09;94.88;100509.69;5124301;28;20027;-65
2022/07/02 01:05:48;;;;;;;0.20;0.20;;;;;;;15.08;94.71;100521.06;5123950;28;20028;-65
2022/07/02 01:11:01;;;;;;;0.95;0.95;;;;;;;15.03;94.91;100520.31;5123765;28;20026;-64
2022/07/02 01:13:31;;;;;;;0.20;0.20;;;;;;;14.98;94.83;100523.03;5123980;28;20087;-64
2022/07/02 01:15:57;;;;;;;0.28;0.28;;;;;;;14.95;95.05;100523.94;5123733;28;20011;-64
2022/07/02 01:18:22;;;;;;;0.20;0.20;;;;;;;14.95;95.27;100523.94;5123874;28;20031;-64
2022/07/02 01:20:47;;;;;;;0.20;0.20;;;;;;;14.95;95.70;100531.78;5123821;28;20101;-64
2022/07/02 01:23:13;;;;;;;0.20;0.20;;;;;;;14.97;95.44;100526.53;5123747;28;20027;-64
2022/07/02 01:25:38;;;;;;;0.20;0.20;;;;;;;14.97;95.94;100529.13;5123227;28;20105;-64
2022/07/02 01:28:04;;;;;;;0.20;0.20;;;;;;;14.95;96.05;100513.50;5123891;28;20040;-64
2022/07/02 01:30:29;;;;;;;0.20;0.20;;;;;;;15.04;95.99;100532.47;5123913;28;20027;-64
2022/07/02 01:32:55;;;;;;;0.20;0.20;;;;;;;15.10;96.06;100524.47;5123761;28;20026;-64
2022/07/02 01:35:20;;;;;;;0.20;0.20;;;;;;;15.08;96.23;100519.28;5123626;28;20023;-64
2022/07/02 01:37:46;;;;;;;2.20;1.02;;;;;;;15.10;96.21;100517.50;5123552;28;20077;-64
2022/07/02 01:40:12;;;;;;;0.20;0.20;;;;;;;15.12;96.35;100520.06;5123511;28;20028;-64
2022/07/02 01:42:37;;;;;;;0.20;0.20;;;;;;;15.12;96.46;100520.06;5123412;28;20031;-64
2022/07/02 01:45:04;;;;;;;0.20;0.20;;;;;;;15.08;96.35;100514.03;5123633;28;20024;-64
2022/07/02 01:47:29;;;;;;;0.20;0.20;;;;;;;15.10;96.32;100509.66;5105209;28;20027;-63
2022/07/02 01:49:55;;;;;;;0.20;0.20;;;;;;;15.04;96.54;100511.56;5123372;28;20442;-64
2022/07/02 01:52:20;;;;;;;0.20;0.20;;;;;;;15.04;96.81;100509.81;5123572;28;20065;-64
2022/07/02 01:54:46;;;;;;;0.20;0.20;;;;;;;15.05;96.38;100500.22;5126334;28;20038;-64
2022/07/02 01:57:13;;;;;;;0.20;0.20;;;;;;;14.95;97.02;100491.75;5127091;28;20024;-64
2022/07/02 01:59:38;;;;;;;0.50;0.50;;;;;;;15.05;96.81;100503.66;5127369;28;20020;-63
2022/07/02 02:02:05;;;;;;;0.30;0.30;;;;;;;15.07;96.70;100495.78;5127224;28;20019;-63
2022/07/02 02:04:31;;;;;;;0.85;0.85;;;;;;;15.06;96.75;100501.91;5127499;28;20082;-63
2022/07/02 02:06:56;;;;;;;0.20;0.20;;;;;;;15.02;97.02;100505.50;5127228;28;20024;-63
2022/07/02 02:09:22;;;;;;;0.20;0.20;;;;;;;15.05;97.38;100513.28;5127249;28;20157;-63
2022/07/02 02:11:47;;;;;;;0.45;0.45;;;;;;;15.05;96.99;100514.13;5126880;28;20019;-63
2022/07/02 02:14:13;;;;;;;0.20;0.20;;;;;;;15.08;96.77;100507.97;5127355;28;20146;-62
2022/07/02 02:16:39;;;;;;;0.20;0.20;;;;;;;15.06;97.02;100521.09;5127038;28;20024;-62
2022/07/02 02:19:04;;;;;;;0.20;0.20;;;;;;;15.08;96.90;100519.28;5126983;28;20224;-62
2022/07/02 02:21:30;;;;;;;0.20;0.20;;;;;;;15.09;97.23;100534.09;5126816;28;20058;-62
2022/07/02 02:23:57;;;;;;;0.20;0.20;;;;;;;15.03;97.24;100523.75;5126663;28;20104;-62
2022/07/02 02:26:22;;;;;;;0.20;0.20;;;;;;;15.08;96.86;100523.66;5126699;28;20081;-63
2022/07/02 02:28:48;;;;;;;0.20;0.20;;;;;;;15.06;96.85;100517.59;5127166;28;20027;-63
2022/07/02 02:31:13;;;;;;;0.20;0.20;;;;;;;15.02;96.94;100519.44;5126817;28;20605;-63
2022/07/02 02:33:39;;;;;;;0.30;0.30;;;;;;;15.00;97.02;100510.75;5126729;28;20092;-63
2022/07/02 02:36:05;;;;;;;0.20;0.20;;;;;;;15.01;96.84;100517.72;5126399;28;20171;-64
2022/07/02 02:38:31;;;;;;;0.20;0.20;;;;;;;15.03;97.05;100526.38;5126365;28;20140;-64
2022/07/02 02:40:56;;;;;;;0.20;0.20;;;;;;;15.04;96.92;100517.66;5126610;28;20061;-64
2022/07/02 02:43:21;;;;;;;0.20;0.20;;;;;;;15.06;96.81;100523.72;5126642;28;20035;-64
2022/07/02 02:45:48;;;;;;;0.50;0.50;;;;;;;15.01;97.05;100537.78;5126484;28;20029;-65
2022/07/02 02:48:15;;;;;;;0.20;0.20;;;;;;;14.95;96.88;100536.19;5126632;28;20046;-65
2022/07/02 02:50:40;;;;;;;1.05;1.05;;;;;;;14.96;96.72;100541.38;5126468;28;20034;-65
2022/07/02 02:53:05;;;;;;;0.30;0.30;;;;;;;14.98;96.62;100538.72;5126516;28;20043;-65
2022/07/02 02:55:31;;;;;;;0.20;0.20;;;;;;;14.95;96.49;100536.19;5126286;28;20028;-65
2022/07/02 02:57:56;;;;;;;0.20;0.20;;;;;;;14.90;96.74;100533.69;5126320;28;20028;-65
2022/07/02 03:00:21;;;;;;;0.20;0.20;;;;;;;14.96;96.33;100543.13;5126480;28;20027;-64
2022/07/02 03:02:47;;;;;;;0.20;0.20;;;;;;;14.88;96.46;100553.75;5126253;28;20023;-65
2022/07/02 03:05:12;;;;;;;47.95;3.13;;;;;;;14.91;96.86;100553.69;5125072;28;20049;-64
2022/07/02 03:07:38;;;;;;;0.20;0.20;;;;;;;14.93;96.44;100540.59;5126066;28;20243;-65
2022/07/02 03:10:04;;;;;;;0.20;0.20;;;;;;;14.89;96.69;100541.56;5125914;28;20023;-66
2022/07/02 03:12:29;;;;;;;0.20;0.20;;;;;;;14.97;96.64;100552.66;5125780;28;20122;-66
2022/07/02 03:14:55;;;;;;;0.20;0.20;;;;;;;14.98;96.78;100557.84;5125962;28;20057;-67
2022/07/02 03:17:20;;;;;;;0.20;0.20;;;;;;;15.02;96.67;100555.16;5125763;28;20019;-68
2022/07/02 03:19:46;;;;;;;0.22;0.22;;;;;;;15.02;96.69;100558.66;5126008;28;20055;-68
2022/07/02 03:22:11;;;;;;;0.20;0.20;;;;;;;15.07;96.75;100558.53;5125669;28;20032;-68
2022/07/02 03:24:37;;;;;;;0.20;0.20;;;;;;;15.05;95.90;100555.13;5125710;28;20039;-69
2022/07/02 03:27:02;;;;;;;0.20;0.20;;;;;;;15.04;96.27;100550.75;5124914;28;20092;-69
2022/07/02 03:29:28;;;;;;;0.20;0.20;;;;;;;15.08;96.83;100550.66;5124775;28;20490;-70
2022/07/02 03:31:53;;;;;;;0.20;0.20;;;;;;;15.15;96.40;100551.38;5124756;28;20058;-71
2022/07/02 03:34:18;;;;;;;0.20;0.20;;;;;;;15.19;96.45;100553.00;5125032;28;20020;-71
2022/07/02 03:36:44;;;;;;;0.20;0.20;;;;;;;15.22;96.69;100558.13;5125301;28;20023;-72
2022/07/02 03:39:09;;;;;;;0.20;0.20;;;;;;;15.30;96.31;100559.72;5125641;28;20027;-71
2022/07/02 03:41:34;;;;;;;0.20;0.20;;;;;;;15.31;96.55;100554.44;5125285;28;20098;-72
2022/07/02 03:44:00;;;;;;;0.20;0.20;;;;;;;15.27;96.41;100559.81;5125372;28;20034;-72
2022/07/02 03:46:25;;;;;;;0.85;0.40;;;;;;;15.32;96.42;100571.84;5125243;28;20026;-71
2022/07/02 03:48:50;;;;;;;0.20;0.20;;;;;;;15.34;95.77;100583.13;5106921;28;20083;-72
2022/07/02 03:51:16;;;;;;;0.20;0.20;;;;;;;15.35;95.89;100574.38;5125390;28;20020;-73
2022/07/02 03:53:41;;;;;;;0.85;0.63;;;;;;;15.33;95.48;100565.75;5125381;28;20352;-73
2022/07/02 03:56:07;;;;;;;0.30;0.30;;;;;;;15.31;95.27;100561.44;5125013;28;20039;-73
2022/07/02 03:58:33;;;;;;;0.20;0.20;;;;;;;15.40;96.11;100576.03;5106860;28;20022;-74
2022/07/02 04:00:58;;;;;;;0.20;0.20;;;;;;;15.36;95.33;100568.28;5124951;28;20019;-74
2022/07/02 04:03:24;;;;;;;0.50;0.47;;;;;;;15.42;95.57;100569.84;5125040;28;20023;-74
2022/07/02 04:05:49;;;;;;;0.20;0.20;;;;;;;15.49;95.64;100570.56;5124630;28;20070;-74
2022/07/02 04:08:15;;;;;;;0.52;0.52;;;;;;;15.56;95.43;100573.88;5124935;28;20016;-74
2022/07/02 04:10:40;;;;;;;0.20;0.20;;;;;;;15.57;95.79;100563.38;5106482;28;20541;-74
2022/07/02 04:13:06;;;;;;;0.20;0.20;;;;;;;15.69;95.62;100561.31;5125004;28;20031;-73
2022/07/02 04:15:32;;;;;;;0.20;0.20;;;;;;;15.74;95.90;100559.41;5124940;28;20548;-74
2022/07/02 04:17:57;;;;;;;0.20;0.20;;;;;;;15.75;95.78;100563.75;5124546;28;20016;-74
2022/07/02 04:20:22;;;;;;;0.73;0.73;;;;;;;15.78;95.27;100579.41;5124896;28;20023;-75
2022/07/02 04:22:48;;;;;;;0.20;0.20;;;;;;;15.72;94.89;100582.16;5124838;28;20023;-76
2022/07/02 04:25:13;;;;;;;0.20;0.20;;;;;;;15.73;94.13;100594.34;5124341;28;20154;-76
2022/07/02 04:27:39;;;;;;;0.20;0.20;;;;;;;15.73;94.17;100591.75;5124630;28;20078;-73
2022/07/02 04:30:05;;;;;;;0.30;0.30;;;;;;;15.73;93.97;100594.34;5124828;28;20050;-73
2022/07/02 04:32:30;;;;;;;0.20;0.20;;;;;;;15.70;92.84;100587.44;5124458;28;20046;-74
2022/07/02 04:34:55;;;;;;;0.20;0.20;;;;;;;15.77;93.26;100584.66;5124484;28;20031;-74
2022/07/02 04:37:21;;;;;;;0.20;0.20;;;;;;;15.80;93.25;100595.91;5124409;28;20016;-73
2022/07/02 04:39:46;;;;;;;0.20;0.20;;;;;;;15.80;93.11;100605.53;5124476;28;20015;-73
2022/07/02 04:42:11;;;;;;;0.20;0.20;;;;;;;15.80;92.91;100600.28;5105706;28;20083;-73
2022/07/02 04:44:37;;;;;;;0.20;0.20;;;;;;;15.81;92.63;100615.09;5106038;28;20035;-74
2022/07/02 04:47:02;;;;;;;0.20;0.20;;;;;;;15.82;92.73;100615.03;5105661;28;20020;-74
2022/07/02 04:49:28;;;;;;;0.22;0.22;;;;;;;15.76;91.64;100625.69;5124676;28;20024;-72
2022/07/02 04:51:53;;;;;;;0.20;0.20;;;;;;;15.77;90.71;100637.84;5123990;28;20461;-72
2022/07/02 04:54:19;;;;;;;0.45;0.45;;;;;;;15.71;89.23;100643.25;5124249;28;20109;-72
2022/07/02 04:56:44;;;;;;;0.20;0.20;;;;;;;15.69;87.21;100638.06;5123964;28;20068;-71
2022/07/02 04:59:09;;;;;;;0.20;0.20;;;;;;;15.69;86.79;100640.69;5123957;28;20083;-71
2022/07/02 05:01:35;;;;;;;0.20;0.20;;;;;;;15.69;86.52;100645.03;5124169;28;20038;-73
2022/07/02 05:04:00;;;;;;;0.20;0.20;;;;;;;15.70;86.63;100641.56;5124094;28;20019;-73
2022/07/02 05:06:26;;;;;;;0.20;0.20;;;;;;;15.81;85.81;100649.97;5124137;28;20027;-73
2022/07/02 05:08:52;;;;;;;0.20;0.20;;;;;;;15.91;86.95;100649.72;5124277;28;20431;-73
2022/07/02 05:11:19;;;;;;;0.68;0.68;;;;;;;15.90;86.91;100643.63;5124130;28;20027;-73
2022/07/02 05:13:48;;;;;;;0.20;0.20;;;;;;;15.97;86.07;100644.34;5123986;28;20024;-73
2022/07/02 05:16:14;;;;;;;0.20;0.20;;;;;;;15.96;86.11;100642.59;5123942;28;20023;-72
2022/07/02 05:18:39;;;;;;;0.20;0.20;;;;;;;16.05;86.32;100647.63;5123992;28;20034;-74
2022/07/02 05:21:05;;;;;;;1.08;1.08;;;;;;;16.12;86.96;100639.59;5123885;28;20035;-72
2022/07/02 05:23:31;;;;;;;0.30;0.30;;;;;;;16.18;86.45;100636.81;5123973;28;20027;-72
2022/07/02 05:25:56;;;;;;;0.35;0.35;;;;;;;16.16;85.76;100652.56;5123593;28;20055;-72
2022/07/02 05:28:21;;;;;;;0.20;0.20;;;;;;;16.11;85.87;100636.13;5124446;28;20019;-70
2022/07/02 05:30:47;;;;;;;0.20;0.20;;;;;;;16.17;86.46;100646.41;5128158;28;20024;-73
2022/07/02 05:33:12;;;;;;;0.20;0.20;;;;;;;16.23;86.12;100653.22;5127992;28;20475;-70
2022/07/02 05:35:38;;;;;;;0.20;0.20;;;;;;;16.25;85.90;100653.19;5127827;28;20023;-71
2022/07/02 05:38:03;;;;;;;0.20;0.20;;;;;;;16.30;86.41;100649.56;5127813;28;20488;-70
2022/07/02 05:40:28;;;;;;;0.20;0.20;;;;;;;16.28;84.17;100633.00;5127936;28;20020;-70
2022/07/02 05:42:54;;;;;;;0.20;0.20;;;;;;;16.30;84.72;100614.63;5127746;28;20494;-71
2022/07/02 05:45:19;;;;;;;0.20;0.20;;;;;;;16.37;85.02;100617.94;5127843;28;20051;-71
2022/07/02 05:47:44;;;;;;;0.20;0.20;;;;;;;16.41;84.95;100622.16;5128092;28;20050;-71
2022/07/02 05:50:10;;;;;;;0.20;0.20;;;;;;;16.45;84.59;100626.44;5127571;28;20046;-72
2022/07/02 05:52:36;;;;;;;0.40;0.40;;;;;;;16.51;84.72;100628.00;5127646;28;20478;-71
2022/07/02 05:55:01;;;;;;;0.20;0.20;;;;;;;16.46;83.84;100634.25;5127697;28;20076;-71
2022/07/02 05:57:27;;;;;;;0.20;0.20;;;;;;;16.44;83.51;100628.19;5127281;28;20023;-71
2022/07/02 05:59:52;;;;;;;0.20;0.20;;;;;;;16.52;82.99;100648.09;5127305;28;20027;-72
2022/07/02 06:02:17;;;;;;;0.20;0.20;;;;;;;16.48;83.04;100639.44;5127574;28;20031;-71
2022/07/02 06:04:43;;;;;;;1.30;1.30;;;;;;;16.49;82.78;100651.63;5127344;28;20024;-71
2022/07/02 06:09:52;;;;;;;0.20;0.20;;;;;;;16.48;82.07;100655.16;5127347;28;20381;-70
2022/07/02 06:12:17;;;;;;;0.20;0.20;;;;;;;16.44;82.36;100657.00;5126928;28;20047;-70
2022/07/02 06:14:43;;;;;;;0.20;0.20;;;;;;;16.51;83.05;100652.47;5127191;28;20061;-70
2022/07/02 06:17:09;;;;;;;0.20;0.20;;;;;;;16.60;83.38;100654.81;5126941;28;20024;-69
2022/07/02 06:19:34;;;;;;;0.22;0.22;;;;;;;16.67;83.18;100649.38;5108645;28;20019;-70
2022/07/02 06:22:00;;;;;;;0.20;0.20;;;;;;;16.79;83.27;100643.75;5126976;28;20057;-70
2022/07/02 06:24:25;;;;;;;0.20;0.20;;;;;;;16.83;82.66;100662.88;5126859;28;20039;-70
2022/07/02 06:26:50;;;;;;;0.20;0.20;;;;;;;16.86;82.07;100649.66;5127041;28;20042;-70
2022/07/02 06:29:16;;;;;;;0.20;0.20;;;;;;;16.98;82.27;100656.31;5108511;28;20026;-70
2022/07/02 06:31:41;;;;;;;0.57;0.57;;;;;;;17.10;80.83;100673.44;5126697;28;20051;-71
2022/07/02 06:34:06;;;;;;;0.20;0.20;;;;;;;17.23;80.39;100679.16;5126702;28;20027;-70
2022/07/02 06:36:32;;;;;;;0.20;0.20;;;;;;;17.51;80.59;100682.66;5108158;28;20060;-71
2022/07/02 06:38:57;;;;;;;0.60;0.60;;;;;;;17.76;79.81;100689.69;5126624;28;20046;-70
2022/07/02 06:44:07;;;;;;;0.25;0.25;;;;;;;18.03;76.68;100693.16;5126755;28;20097;-71
2022/07/02 06:46:34;;;;;;;0.20;0.20;;;;;;;18.12;77.49;100688.47;5126376;28;20031;-69
2022/07/02 06:48:59;;;;;;;0.63;0.63;;;;;;;18.12;77.04;100701.63;5126613;28;20011;-70
2022/07/02 06:51:25;;;;;;;0.45;0.45;;;;;;;18.12;74.70;100699.88;5126484;28;20085;-69
2022/07/02 06:53:50;;;;;;;0.20;0.20;;;;;;;18.08;73.90;100703.50;5126539;28;20020;-69
2022/07/02 06:56:16;;;;;;;0.20;0.20;;;;;;;18.02;74.05;100707.16;5108012;28;20027;-70
2022/07/02 06:58:41;;;;;;;0.55;0.55;;;;;;;18.07;74.83;100707.88;5126427;28;20031;-70
2022/07/02 07:01:06;;;;;;;0.20;0.20;;;;;;;18.69;77.82;100704.81;5126375;28;20080;-70
2022/07/02 07:03:32;;;;;;;0.20;0.20;;;;;;;19.47;77.65;100705.38;5125981;28;20032;-70
2022/07/02 07:05:57;;;;;;;0.65;0.65;;;;;;;19.96;75.14;100702.44;5126059;28;20086;-70
2022/07/02 07:08:22;;;;;;;0.20;0.20;;;;;;;20.01;70.94;100716.28;5126071;28;20019;-70
2022/07/02 07:10:48;;;;;;;0.40;0.40;;;;;;;20.20;71.05;100720.75;5126141;28;20023;-70
2022/07/02 07:13:13;;;;;;;0.20;0.20;;;;;;;20.41;68.94;100729.50;5125937;28;20026;-71
2022/07/02 07:15:38;;;;;;;0.30;0.30;;;;;;;20.50;68.39;100722.09;5125877;28;20436;-71
2022/07/02 07:18:04;;;;;;;0.20;0.20;;;;;;;20.71;66.50;100722.91;5125876;28;20024;-71
2022/07/02 07:20:29;;;;;;;0.35;0.35;;;;;;;20.73;64.74;100728.09;5125877;28;20020;-73
2022/07/02 07:22:55;;;;;;;0.13;0.13;;;;;;;21.10;65.85;100720.28;5125816;28;20459;-70
2022/07/02 07:25:21;;;;;;;0.10;0.10;;;;;;;21.41;61.78;100713.47;5125733;28;20044;-70
2022/07/02 07:27:48;;;;;;;0.20;0.20;;;;;;;21.37;62.52;100722.50;5107093;28;20042;-70
2022/07/02 07:30:14;;;;;;;29.17;2.70;;;;;;;21.23;61.85;100729.28;5125558;28;20023;-71
2022/07/02 07:32:39;;;;;;;0.20;0.20;;;;;;;21.04;60.91;100734.59;5125492;28;20020;-69
2022/07/02 07:35:05;;;;;;;0.10;0.10;;;;;;;20.88;60.83;100735.28;5125480;28;20026;-69
2022/07/02 07:37:31;;;;;;;0.20;0.20;;;;;;;21.04;59.78;100738.09;5125345;28;20597;-69
2022/07/02 07:39:56;;;;;;;0.20;0.20;;;;;;;20.87;57.66;100741.50;5107073;28;20030;-72
2022/07/02 07:42:27;;;;;;;0.10;0.10;;;;;;;20.48;58.12;100737.97;5125087;28;20024;-70
2022/07/02 07:44:52;;;;;;;0.20;0.20;;;;;;;20.17;59.56;100742.84;5125349;28;20063;-70
2022/07/02 07:47:18;;;;;;;0.73;0.73;;;;;;;20.53;59.78;100733.34;5125450;28;20031;-71
2022/07/02 07:49:43;;;;;;;0.10;0.10;;;;;;;21.13;58.99;100746.50;5106968;28;20027;-71
2022/07/02 07:52:08;;;;;;;0.20;0.20;;;;;;;21.87;56.55;100751.78;5124880;28;20015;-72
2022/07/02 07:54:34;;;;;;;0.10;0.10;;;;;;;21.85;55.92;100743.94;5125129;28;20022;-71
2022/07/02 07:56:59;;;;;;;0.10;0.10;;;;;;;21.58;57.45;100754.06;5124985;28;20103;-71
2022/07/02 07:59:24;;;;;;;0.20;0.20;;;;;;;21.35;57.79;100758.69;5125212;28;20050;-72
2022/07/02 08:01:50;;;;;;;0.20;0.20;;;;;;;21.06;57.63;100756.50;5125096;28;20035;-70
2022/07/02 08:04:16;;;;;;;0.13;0.13;;;;;;;20.58;57.33;100750.75;5124968;28;20032;-71
2022/07/02 08:06:41;;;;;;;2.85;2.30;;;;;;;20.62;58.26;100752.34;5124714;28;20027;-71
2022/07/02 08:09:06;;;;;;;0.10;0.10;;;;;;;21.25;57.46;100761.75;5125099;28;20467;-74
2022/07/02 08:11:32;;;;;;;0.20;0.20;;;;;;;21.54;57.62;100758.63;5124648;28;20047;-69
2022/07/02 08:13:58;;;;;;;0.28;0.28;;;;;;;22.22;56.22;100759.66;5124771;28;20054;-69
2022/07/02 08:16:23;;;;;;;0.10;0.10;;;;;;;23.18;54.21;100747.53;5124603;28;20503;-69
2022/07/02 08:18:49;;;;;;;0.10;0.10;;;;;;;23.45;51.05;100762.81;5124622;28;20083;-69
2022/07/02 08:21:14;;;;;;;0.20;0.20;;;;;;;23.27;52.49;100754.94;5124667;28;20379;-69
2022/07/02 08:23:40;;;;;;;0.45;0.38;;;;;;;23.43;52.28;100755.91;5124533;28;20121;-69
2022/07/02 08:26:05;;;;;;;0.10;0.10;;;;;;;23.69;50.96;100759.69;5124295;28;20042;-70
2022/07/02 08:28:31;;;;;;;0.20;0.20;;;;;;;24.16;49.98;100757.00;5124416;28;20027;-69
2022/07/02 08:30:56;;;;;;;0.10;0.10;;;;;;;24.40;48.63;100764.41;5124270;28;20038;-70
2022/07/02 08:33:22;;;;;;;0.10;0.10;;;;;;;24.12;48.43;100768.72;5124458;28;20053;-71
2022/07/02 08:35:47;;;;;;;0.17;0.17;;;;;;;23.77;48.19;100769.88;5105826;28;20023;-69
2022/07/02 08:38:12;;;;;;;0.20;0.20;;;;;;;23.36;48.94;100766.84;5124350;28;20016;-68
2022/07/02 08:40:41;;;;;;;1.17;1.17;;;;;;;22.96;50.05;100777.88;5124577;28;20027;-69
2022/07/02 08:43:07;;;;;;;0.38;0.38;;;;;;;23.18;51.29;100771.38;5124027;28;20397;-69
2022/07/02 08:45:34;;;;;;;0.10;0.10;;;;;;;23.46;50.66;100776.94;5124421;28;20030;-69
2022/07/02 08:48:03;;;;;;;0.10;0.10;;;;;;;23.85;49.75;100774.72;5124111;28;20023;-71
2022/07/02 08:50:28;;;;;;;0.10;0.10;;;;;;;23.96;48.53;100777.56;5124003;28;20016;-64
2022/07/02 08:52:54;;;;;;;0.10;0.10;;;;;;;23.83;48.35;100788.06;5124022;28;20106;-68
2022/07/02 08:55:20;;;;;;;0.68;0.68;;;;;;;23.61;47.33;100791.13;5124086;28;20043;-66
2022/07/02 08:57:47;;;;;;;0.10;0.10;;;;;;;23.58;48.82;100789.47;5123841;28;20023;-69
2022/07/02 09:00:14;;;;;;;0.35;0.35;;;;;;;23.33;49.49;100795.28;5123946;28;20020;-68
2022/07/02 09:02:41;;;;;;;0.75;0.75;;;;;;;23.16;50.12;100799.75;5123788;28;20346;-67
2022/07/02 09:05:09;;;;;;;0.20;0.20;;;;;;;23.57;51.22;100800.16;5123514;28;20027;-69
2022/07/02 09:07:36;;;;;;;0.10;0.10;;;;;;;24.59;46.98;100789.78;5123903;28;20019;-65
2022/07/02 09:10:02;;;;;;;0.30;0.30;;;;;;;25.22;46.54;100803.59;5123932;28;20023;-67
2022/07/02 09:12:29;;;;;;;0.13;0.13;;;;;;;25.80;45.14;100799.06;5123848;28;20051;-69
2022/07/02 09:14:54;;;;;;;0.10;0.10;;;;;;;25.98;42.87;100797.81;5124072;28;20023;-67
2022/07/02 09:17:19;;;;;;;0.10;0.10;;;;;;;24.98;42.63;100812.19;5123771;28;20066;-68
2022/07/02 09:19:45;;;;;;;0.85;0.85;;;;;;;24.49;45.06;100811.59;5105367;28;20031;-70
2022/07/02 09:22:10;;;;;;;0.10;0.10;;;;;;;25.22;45.62;100814.22;5123693;28;20080;-69
2022/07/02 09:24:42;;;;;;;0.10;0.10;;;;;;;25.55;43.86;100814.78;5122948;28;20074;-69
2022/07/02 09:27:12;;;;;;;0.20;0.20;;;;;;;25.79;41.69;100818.59;5105266;28;20387;-70
2022/07/02 09:29:48;;;;;;;0.80;0.80;;;;;;;25.84;41.53;100819.16;5105566;28;20038;-70
2022/07/02 09:32:15;;;;;;;0.10;0.10;;;;;;;26.07;42.45;100817.59;5123775;28;20020;-69
2022/07/02 09:34:43;;;;;;;0.10;0.10;;;;;;;26.66;40.59;100825.22;5123535;28;20533;-70
2022/07/02 09:37:24;;;;;;;0.10;0.10;;;;;;;26.89;39.79;100825.38;5105138;28;20027;-70
2022/07/02 09:39:55;;;;;;;0.10;0.10;;;;;;;26.77;40.56;100822.63;5123886;28;20036;-69
2022/07/02 09:42:33;;;;;;;0.10;0.10;;;;;;;27.09;39.94;100821.31;5123537;28;20057;-70
2022/07/02 09:45:04;;;;;;;0.10;0.10;;;;;;;27.71;38.53;100827.50;5123615;28;20731;-69
2022/07/02 09:47:35;;;;;;;0.10;0.10;;;;;;;28.28;39.37;100831.28;5123634;28;20502;-70
2022/07/02 09:50:06;;;;;;;0.10;0.10;;;;;;;28.75;37.80;100822.34;5123633;28;20023;-70
2022/07/02 09:52:32;;;;;;;0.20;0.20;;;;;;;28.20;36.25;100821.19;5123513;28;20101;-69
2022/07/02 09:54:58;;;;;;;0.10;0.10;;;;;;;26.96;37.92;100837.31;5123453;28;20023;-69
2022/07/02 09:57:23;;;;;;;0.10;0.10;;;;;;;26.02;38.87;100835.69;5123386;28;20022;-69
2022/07/02 09:59:48;;;;;;;0.10;0.10;;;;;;;25.43;40.63;100850.97;5123318;28;20023;-69
2022/07/02 10:02:22;;;;;;;0.10;0.10;;;;;;;24.64;42.41;100846.09;5123223;28;20023;-69
2022/07/02 10:04:50;;;;;;;0.10;0.10;;;;;;;24.09;44.02;100857.25;5123592;28;20032;-69
2022/07/02 10:07:16;;;;;;;0.10;0.10;;;;;;;23.61;45.37;100847.59;5123337;28;20019;-69
2022/07/02 10:09:42;;;;;;;0.10;0.10;;;;;;;23.59;45.84;100859.22;5123499;28;20050;-70
2022/07/02 10:12:08;;;;;;;0.30;0.30;;;;;;;23.15;46.05;100857.13;5123147;28;20580;-70
2022/07/02 10:14:36;;;;;;;0.10;0.10;;;;;;;23.06;46.76;100867.38;5124311;28;20023;-68
2022/07/02 10:17:02;;;;;;;0.10;0.10;;;;;;;22.88;46.56;100864.78;5126607;28;20064;-70
2022/07/02 10:19:28;;;;;;;0.10;0.10;;;;;;;23.13;46.81;100871.41;5127156;28;20024;-69
2022/07/02 10:21:55;;;;;;;0.10;0.10;;;;;;;23.43;46.41;100870.69;5127048;28;20037;-68
2022/07/02 10:24:23;;;;;;;0.10;0.10;;;;;;;23.32;45.93;100867.75;5126749;28;20047;-68
2022/07/02 10:26:49;;;;;;;0.10;0.10;;;;;;;23.55;46.87;100865.66;5126736;28;20019;-69
2022/07/02 10:29:17;;;;;;;0.10;0.10;;;;;;;23.74;45.43;100861.00;5126919;28;20016;-68
2022/07/02 10:31:52;;;;;;;0.10;0.10;;;;;;;23.32;46.21;100865.97;5126693;28;20084;-69
2022/07/02 10:34:45;;;;;;;0.10;0.10;;;;;;;22.89;46.87;100877.09;5126694;28;20106;-69
2022/07/02 10:37:11;;;;;;;0.20;0.20;;;;;;;22.73;48.29;100866.47;5108248;28;20023;-69
2022/07/02 10:39:39;;;;;;;0.13;0.13;;;;;;;22.95;48.35;100868.81;5126841;28;20024;-69
2022/07/02 10:42:05;;;;;;;0.10;0.10;;;;;;;23.56;47.15;100867.34;5108003;28;20022;-69
2022/07/02 10:44:42;;;;;;;0.10;0.10;;;;;;;23.95;46.17;100873.97;5126787;28;20024;-69
2022/07/02 10:47:18;;;;;;;0.10;0.10;;;;;;;23.84;46.27;100871.06;5126366;28;20024;-69
2022/07/02 10:49:44;;;;;;;0.10;0.10;;;;;;;23.80;46.05;100883.69;5126633;28;20024;-69
2022/07/02 10:52:09;;;;;;;0.10;0.10;;;;;;;23.55;45.30;100889.50;5126330;28;20037;-69
2022/07/02 10:54:35;;;;;;;0.10;0.10;;;;;;;23.10;46.40;100893.59;5126485;28;20045;-69
2022/07/02 10:57:00;;;;;;;0.10;0.10;;;;;;;22.85;46.93;100889.63;5126214;28;20101;-69
2022/07/02 10:59:33;;;;;;;0.10;0.10;;;;;;;23.00;47.51;100889.75;5126212;28;20038;-68
2022/07/02 11:02:09;;;;;;;0.30;0.30;;;;;;;23.88;46.47;100892.03;5107966;28;20027;-69
2022/07/02 11:04:35;;;;;;;1.45;1.27;;;;;;;23.70;44.91;100891.28;5126251;28;20049;-70
2022/07/02 11:07:05;;;;;;;0.63;0.63;;;;;;;23.31;45.90;100885.44;5126139;28;20031;-70
2022/07/02 11:09:31;;;;;;;0.10;0.10;;;;;;;23.05;46.32;100887.72;5126210;28;20080;-70
2022/07/02 11:11:59;;;;;;;0.10;0.10;;;;;;;22.75;46.18;100881.31;5125997;28;20087;-69
2022/07/02 11:14:26;;;;;;;0.10;0.10;;;;;;;22.49;46.49;100895.88;5125932;28;20060;-69
2022/07/02 11:16:53;;;;;;;0.20;0.20;;;;;;;22.36;46.30;100890.34;5125790;28;20027;-69
2022/07/02 11:19:29;;;;;;;0.10;0.10;;;;;;;22.41;46.30;100899.75;5125938;28;20024;-69
2022/07/02 11:21:58;;;;;;;0.10;0.10;;;;;;;22.56;46.19;100899.06;5125926;28;20023;-68
2022/07/02 11:24:26;;;;;;;0.10;0.10;;;;;;;22.33;46.55;100887.84;5125542;28;20039;-69
2022/07/02 11:26:52;;;;;;;0.20;0.20;;;;;;;22.12;47.24;100888.88;5124478;28;20451;-69
2022/07/02 11:29:18;;;;;;;0.10;0.10;;;;;;;22.06;47.46;100896.25;5125849;28;20027;-69